»·PEaware :: DAL2106 KSLC-KBOI

DAL2106 :: KSLC-KBOI

FLIGHT INFORMATION

Flight Status: Arrived
Operator:
Delta Air Lines
More flights by this operator :: More flights under this callsign
Pilot: Blake J. (22694)
Aircraft: BOEING 737-800
(B738)
More flights by this aircraft type
Origin: KSLC Salt Lake City Intl
United States
Destination: KBOI Boise Air Terminal/Gowen
United States
More flights between these airports :: More routes between these airports
Route: +CGULL1 TWF BROPH SPUUD3
File this flight plan on PilotEdge
Remarks: RMK / SIMBRIEF
Altitude:
(Current/Filed)
36,000ft
Speed:
(Current/Filed)
454kts
Departed: 09-Mar-19 11:17 PM
Arrived: 10-Mar-19 12:06 AM
Distance/Time
Traveled:
252nm/0:49
Distance/Time
To Go:
Arrived

Flight Plot

Page will automatically refresh every two minutes.

Flight plan parsing failed; only flown route is shown


Map Options




Map Legend


Flown Route
Filed Route
Departure Airport
Arrival Airport
Navaid (VOR, NDB)
Fix

Horizontal Profiles

Position Reports

Time Latitude Longitude Heading Altitude Ground
Speed
09-Mar-19 22:51 40.789162 -111.977931 227 4235ft 0kts
09-Mar-19 22:52 40.789162 -111.977931 227 4235ft 0kts
09-Mar-19 22:53 40.789162 -111.977931 227 4235ft 0kts
09-Mar-19 22:54 40.789162 -111.977931 227 4235ft 0kts
09-Mar-19 22:55 40.789162 -111.977931 227 4235ft 0kts
09-Mar-19 22:56 40.789162 -111.977931 227 4235ft 0kts
09-Mar-19 22:57 40.789162 -111.977931 227 4235ft 0kts
09-Mar-19 22:59 40.789162 -111.977931 227 4235ft 0kts
09-Mar-19 23:00 40.789162 -111.977931 227 4235ft 0kts
09-Mar-19 23:01 40.789162 -111.977931 227 4235ft 0kts
09-Mar-19 23:02 40.789162 -111.977931 227 4235ft 0kts
09-Mar-19 23:03 40.789162 -111.977931 227 4235ft 0kts
09-Mar-19 23:04 40.789162 -111.977931 227 4235ft 0kts
09-Mar-19 23:05 40.789162 -111.977931 227 4235ft 0kts
09-Mar-19 23:06 40.789162 -111.977931 227 4235ft 0kts
09-Mar-19 23:07 40.789162 -111.977931 227 4235ft 0kts
09-Mar-19 23:08 40.789163 -111.977931 227 4235ft 0kts
09-Mar-19 23:09 40.789366 -111.977260 294 4235ft 2kts
09-Mar-19 23:10 40.789025 -111.976969 355 4235ft 0kts
09-Mar-19 23:11 40.789026 -111.976969 355 4235ft 0kts
09-Mar-19 23:12 40.790180 -111.977093 354 4235ft 16kts
09-Mar-19 23:13 40.797271 -111.977933 354 4235ft 29kts
09-Mar-19 23:14 40.805065 -111.978381 354 4235ft 26kts
09-Mar-19 23:15 40.807003 -111.978540 20 4235ft 0kts
09-Mar-19 23:16 40.806316 -111.976764 175 4235ft 16kts
09-Mar-19 23:17 40.771267 -111.975623 197 5198ft 185kts
09-Mar-19 23:18 40.739167 -112.041679 276 6146ft 250kts
09-Mar-19 23:18 40.772220 -112.105511 311 7554ft 257kts
09-Mar-19 23:20 40.838526 -112.185021 321 10451ft 312kts
09-Mar-19 23:21 40.910840 -112.260016 318 14246ft 336kts
09-Mar-19 23:21 40.973318 -112.325042 317 17315ft 349kts
09-Mar-19 23:23 41.060911 -112.424315 307 21265ft 360kts
09-Mar-19 23:23 41.116717 -112.502733 305 23518ft 368kts
09-Mar-19 23:24 41.188719 -112.604318 304 25711ft 380kts
09-Mar-19 23:25 41.261723 -112.707767 302 27936ft 391kts
09-Mar-19 23:26 41.337277 -112.815350 301 30352ft 403kts
09-Mar-19 23:27 41.414175 -112.925093 301 32867ft 406kts
09-Mar-19 23:28 41.491088 -113.035165 302 35207ft 404kts
09-Mar-19 23:29 41.569053 -113.147427 303 35989ft 418kts
09-Mar-19 23:30 41.648154 -113.261541 303 35989ft 418kts
09-Mar-19 23:31 41.727736 -113.376782 304 35988ft 419kts
09-Mar-19 23:32 41.807551 -113.492805 304 35987ft 420kts
09-Mar-19 23:33 41.887105 -113.608883 304 35988ft 421kts
09-Mar-19 23:34 41.964055 -113.721668 304 35999ft 420kts
09-Mar-19 23:35 42.043143 -113.838125 304 36004ft 420kts
09-Mar-19 23:36 42.122371 -113.955219 304 35996ft 420kts
09-Mar-19 23:37 42.201246 -114.072252 304 35997ft 421kts
09-Mar-19 23:38 42.280329 -114.190043 304 36000ft 421kts
09-Mar-19 23:39 42.359058 -114.307816 305 36003ft 422kts
09-Mar-19 23:40 42.437871 -114.426207 305 35583ft 431kts
09-Mar-19 23:41 42.517542 -114.548413 302 32185ft 423kts
09-Mar-19 23:42 42.592876 -114.668689 302 29020ft 423kts
09-Mar-19 23:43 42.666065 -114.786253 303 26093ft 424kts
09-Mar-19 23:44 42.738700 -114.900530 306 24012ft 382kts
09-Mar-19 23:45 42.812712 -115.006811 307 24005ft 385kts
09-Mar-19 23:46 42.886563 -115.113126 307 24017ft 386kts
09-Mar-19 23:47 42.958618 -115.217186 307 22336ft 367kts
09-Mar-19 23:48 43.028122 -115.318148 308 20027ft 356kts
09-Mar-19 23:49 43.095133 -115.415859 308 17764ft 347kts
09-Mar-19 23:50 43.160439 -115.511385 309 15705ft 334kts
09-Mar-19 23:51 43.223988 -115.604501 309 14352ft 332kts
09-Mar-19 23:52 43.282779 -115.697748 296 12735ft 311kts
09-Mar-19 23:53 43.320751 -115.801640 294 11243ft 297kts
09-Mar-19 23:54 43.357104 -115.899604 295 10137ft 277kts
09-Mar-19 23:55 43.391585 -115.992745 296 8959ft 269kts
09-Mar-19 23:56 43.425311 -116.084049 297 7789ft 263kts
09-Mar-19 23:57 43.458578 -116.174263 296 7005ft 274kts
09-Mar-19 23:58 43.490482 -116.268643 295 5644ft 261kts
09-Mar-19 23:59 43.519671 -116.353900 295 4999ft 227kts
10-Mar-19 00:00 43.546864 -116.431945 295 5000ft 223kts
10-Mar-19 00:01 43.597731 -116.455589 24 4569ft 226kts
10-Mar-19 00:02 43.635783 -116.398169 110 4423ft 221kts
10-Mar-19 00:03 43.599250 -116.324898 111 4163ft 240kts
10-Mar-19 00:04 43.575828 -116.252668 115 3274ft 161kts
10-Mar-19 00:05 43.563315 -116.216793 114 2850ft 40kts
10-Mar-19 00:06 43.563121 -116.212707 300 2850ft 11kts
10-Mar-19 00:07 43.566232 -116.219007 311 2850ft 14kts
10-Mar-19 00:08 43.566653 -116.219188 14 2850ft 0kts

Navigation Log

Ident Type
Flight plan parsing failed, navigation log unavailable